sensor_id;sensor_type;location;lat;lon;timestamp;temperature;humidity
46766;DHT22;32527;51.986;5.842;2022-09-09T00:02:20;14.30;99.90
46766;DHT22;32527;51.986;5.842;2022-09-09T00:05:00;14.30;99.90
46766;DHT22;32527;51.986;5.842;2022-09-09T00:08:02;14.30;99.90
46766;DHT22;32527;51.986;5.842;2022-09-09T00:10:38;14.50;99.90
46766;DHT22;32527;51.986;5.842;2022-09-09T00:13:32;14.30;99.90
46766;DHT22;32527;51.986;5.842;2022-09-09T00:18:57;14.30;99.90
46766;DHT22;32527;51.986;5.842;2022-09-09T00:21:35;14.20;99.90
46766;DHT22;32527;51.986;5.842;2022-09-09T00:24:08;14.30;99.90
46766;DHT22;32527;51.986;5.842;2022-09-09T00:26:42;14.30;99.90
46766;DHT22;32527;51.986;5.842;2022-09-09T00:31:37;14.30;99.90
46766;DHT22;32527;51.986;5.842;2022-09-09T00:34:24;14.30;99.90
46766;DHT22;32527;51.986;5.842;2022-09-09T00:36:52;14.30;99.90
46766;DHT22;32527;51.986;5.842;2022-09-09T00:39:31;14.30;99.90
46766;DHT22;32527;51.986;5.842;2022-09-09T00:42:12;14.30;99.90
46766;DHT22;32527;51.986;5.842;2022-09-09T00:44:58;14.30;99.90
46766;DHT22;32527;51.986;5.842;2022-09-09T00:47:40;14.30;99.90
46766;DHT22;32527;51.986;5.842;2022-09-09T00:53:15;14.20;99.90
46766;DHT22;32527;51.986;5.842;2022-09-09T00:55:54;14.20;99.90
46766;DHT22;32527;51.986;5.842;2022-09-09T00:58:24;14.20;99.90
46766;DHT22;32527;51.986;5.842;2022-09-09T01:01:04;14.10;99.90
46766;DHT22;32527;51.986;5.842;2022-09-09T01:03:52;14.10;99.90
46766;DHT22;32527;51.986;5.842;2022-09-09T01:06:30;14.10;99.90
46766;DHT22;32527;51.986;5.842;2022-09-09T01:12:17;14.00;99.90
46766;DHT22;32527;51.986;5.842;2022-09-09T01:14:52;14.00;99.90
46766;DHT22;32527;51.986;5.842;2022-09-09T01:17:28;13.90;99.90
46766;DHT22;32527;51.986;5.842;2022-09-09T01:20:27;13.90;99.90
46766;DHT22;32527;51.986;5.842;2022-09-09T01:27:00;13.80;99.90
46766;DHT22;32527;51.986;5.842;2022-09-09T01:29:15;13.80;99.90
46766;DHT22;32527;51.986;5.842;2022-09-09T01:34:24;13.80;99.90
46766;DHT22;32527;51.986;5.842;2022-09-09T01:37:04;13.80;99.90
46766;DHT22;32527;51.986;5.842;2022-09-09T01:39:33;13.70;99.90
46766;DHT22;32527;51.986;5.842;2022-09-09T01:42:04;13.70;99.90
46766;DHT22;32527;51.986;5.842;2022-09-09T01:44:30;13.70;99.90
46766;DHT22;32527;51.986;5.842;2022-09-09T01:46:57;13.70;99.90
46766;DHT22;32527;51.986;5.842;2022-09-09T01:49:23;13.70;99.90
46766;DHT22;32527;51.986;5.842;2022-09-09T01:51:52;13.70;99.90
46766;DHT22;32527;51.986;5.842;2022-09-09T01:54:26;13.60;99.90
46766;DHT22;32527;51.986;5.842;2022-09-09T01:57:21;13.50;99.90
46766;DHT22;32527;51.986;5.842;2022-09-09T02:00:04;13.50;99.90
46766;DHT22;32527;51.986;5.842;2022-09-09T02:03:11;13.50;99.90
46766;DHT22;32527;51.986;5.842;2022-09-09T02:06:00;13.50;99.90
46766;DHT22;32527;51.986;5.842;2022-09-09T02:08:42;13.50;99.90
46766;DHT22;32527;51.986;5.842;2022-09-09T02:11:15;13.60;99.90
46766;DHT22;32527;51.986;5.842;2022-09-09T02:13:57;13.40;99.90
46766;DHT22;32527;51.986;5.842;2022-09-09T02:16:34;13.40;99.90
46766;DHT22;32527;51.986;5.842;2022-09-09T02:19:29;13.40;99.90
46766;DHT22;32527;51.986;5.842;2022-09-09T02:22:17;13.40;99.90
46766;DHT22;32527;51.986;5.842;2022-09-09T02:24:46;13.40;99.90
46766;DHT22;32527;51.986;5.842;2022-09-09T02:27:22;13.30;99.90
46766;DHT22;32527;51.986;5.842;2022-09-09T02:29:49;13.30;99.90
46766;DHT22;32527;51.986;5.842;2022-09-09T02:32:23;13.30;99.90
46766;DHT22;32527;51.986;5.842;2022-09-09T02:34:57;13.30;99.90
46766;DHT22;32527;51.986;5.842;2022-09-09T02:37:28;13.30;99.90
46766;DHT22;32527;51.986;5.842;2022-09-09T02:39:57;13.30;99.90
46766;DHT22;32527;51.986;5.842;2022-09-09T02:42:23;13.30;99.90
46766;DHT22;32527;51.986;5.842;2022-09-09T02:44:53;13.30;99.90
46766;DHT22;32527;51.986;5.842;2022-09-09T02:47:34;13.30;99.90
46766;DHT22;32527;51.986;5.842;2022-09-09T02:56:18;13.30;99.90
46766;DHT22;32527;51.986;5.842;2022-09-09T03:01:38;13.20;99.90
46766;DHT22;32527;51.986;5.842;2022-09-09T03:04:35;13.20;99.90
46766;DHT22;32527;51.986;5.842;2022-09-09T03:07:31;13.20;99.90
46766;DHT22;32527;51.986;5.842;2022-09-09T03:10:31;13.20;99.90
46766;DHT22;32527;51.986;5.842;2022-09-09T03:13:26;13.20;99.90
46766;DHT22;32527;51.986;5.842;2022-09-09T03:16:48;13.20;99.90
46766;DHT22;32527;51.986;5.842;2022-09-09T03:23:34;13.20;99.90
46766;DHT22;32527;51.986;5.842;2022-09-09T03:26:52;13.10;99.90
46766;DHT22;32527;51.986;5.842;2022-09-09T03:29:49;13.20;99.90
46766;DHT22;32527;51.986;5.842;2022-09-09T03:36:07;13.20;99.90
46766;DHT22;32527;51.986;5.842;2022-09-09T03:39:04;13.20;99.90
46766;DHT22;32527;51.986;5.842;2022-09-09T03:47:24;13.10;99.90
46766;DHT22;32527;51.986;5.842;2022-09-09T03:50:06;13.20;99.90
46766;DHT22;32527;51.986;5.842;2022-09-09T03:58:03;13.40;99.90
46766;DHT22;32527;51.986;5.842;2022-09-09T04:01:08;13.80;99.90
46766;DHT22;32527;51.986;5.842;2022-09-09T04:06:22;13.50;99.90
46766;DHT22;32527;51.986;5.842;2022-09-09T04:09:00;13.50;99.90
46766;DHT22;32527;51.986;5.842;2022-09-09T04:11:35;13.50;99.90
46766;DHT22;32527;51.986;5.842;2022-09-09T04:14:10;13.60;99.90
46766;DHT22;32527;51.986;5.842;2022-09-09T04:19:12;13.60;99.90
46766;DHT22;32527;51.986;5.842;2022-09-09T04:26:48;13.60;99.90
46766;DHT22;32527;51.986;5.842;2022-09-09T04:29:19;13.60;99.90
46766;DHT22;32527;51.986;5.842;2022-09-09T04:34:35;13.60;99.90
46766;DHT22;32527;51.986;5.842;2022-09-09T04:37:05;13.60;99.90
46766;DHT22;32527;51.986;5.842;2022-09-09T04:39:38;13.60;99.90
46766;DHT22;32527;51.986;5.842;2022-09-09T04:47:15;13.70;99.90
46766;DHT22;32527;51.986;5.842;2022-09-09T04:49:50;13.70;99.90
46766;DHT22;32527;51.986;5.842;2022-09-09T04:52:34;13.70;99.90
46766;DHT22;32527;51.986;5.842;2022-09-09T04:55:06;13.80;99.90
46766;DHT22;32527;51.986;5.842;2022-09-09T04:57:44;13.70;99.90
46766;DHT22;32527;51.986;5.842;2022-09-09T05:00:37;13.80;99.90
46766;DHT22;32527;51.986;5.842;2022-09-09T05:03:13;13.70;99.90
46766;DHT22;32527;51.986;5.842;2022-09-09T05:05:53;13.80;99.90
46766;DHT22;32527;51.986;5.842;2022-09-09T05:08:32;14.00;99.90
46766;DHT22;32527;51.986;5.842;2022-09-09T05:11:26;14.00;99.90
46766;DHT22;32527;51.986;5.842;2022-09-09T05:14:23;14.10;99.90
46766;DHT22;32527;51.986;5.842;2022-09-09T05:17:10;14.20;99.90
46766;DHT22;32527;51.986;5.842;2022-09-09T05:22:21;14.10;99.90
46766;DHT22;32527;51.986;5.842;2022-09-09T05:32:23;14.00;99.90
46766;DHT22;32527;51.986;5.842;2022-09-09T05:35:00;14.20;99.90
46766;DHT22;32527;51.986;5.842;2022-09-09T05:40:21;14.30;99.90
46766;DHT22;32527;51.986;5.842;2022-09-09T05:47:52;14.30;99.90
46766;DHT22;32527;51.986;5.842;2022-09-09T05:52:59;14.30;99.90
46766;DHT22;32527;51.986;5.842;2022-09-09T05:55:46;14.30;99.90
46766;DHT22;32527;51.986;5.842;2022-09-09T06:03:24;14.40;99.90
46766;DHT22;32527;51.986;5.842;2022-09-09T06:06:03;14.50;99.90
46766;DHT22;32527;51.986;5.842;2022-09-09T06:08:47;14.80;99.90
46766;DHT22;32527;51.986;5.842;2022-09-09T06:13:49;14.70;99.90
46766;DHT22;32527;51.986;5.842;2022-09-09T06:16:18;14.80;99.90
46766;DHT22;32527;51.986;5.842;2022-09-09T06:18:54;14.80;99.90
46766;DHT22;32527;51.986;5.842;2022-09-09T06:21:36;14.90;99.90
46766;DHT22;32527;51.986;5.842;2022-09-09T06:24:12;14.90;99.90
46766;DHT22;32527;51.986;5.842;2022-09-09T06:26:42;15.00;99.90
46766;DHT22;32527;51.986;5.842;2022-09-09T06:31:44;15.00;99.90
46766;DHT22;32527;51.986;5.842;2022-09-09T06:34:26;15.10;99.90
46766;DHT22;32527;51.986;5.842;2022-09-09T06:37:08;15.00;99.90
46766;DHT22;32527;51.986;5.842;2022-09-09T06:42:10;15.10;99.90
46766;DHT22;32527;51.986;5.842;2022-09-09T06:47:31;15.30;99.90
46766;DHT22;32527;51.986;5.842;2022-09-09T06:50:05;15.40;99.90
46766;DHT22;32527;51.986;5.842;2022-09-09T07:02:51;16.70;99.90
46766;DHT22;32527;51.986;5.842;2022-09-09T07:05:22;16.90;99.90
46766;DHT22;32527;51.986;5.842;2022-09-09T07:10:34;17.30;99.90
46766;DHT22;32527;51.986;5.842;2022-09-09T07:13:08;17.20;99.90
46766;DHT22;32527;51.986;5.842;2022-09-09T07:18:22;17.30;99.90
46766;DHT22;32527;51.986;5.842;2022-09-09T07:20:58;17.30;99.90
46766;DHT22;32527;51.986;5.842;2022-09-09T07:23:29;17.20;99.90
46766;DHT22;32527;51.986;5.842;2022-09-09T07:26:18;16.90;99.90
46766;DHT22;32527;51.986;5.842;2022-09-09T07:28:54;17.00;99.90
46766;DHT22;32527;51.986;5.842;2022-09-09T07:31:40;17.20;99.90
46766;DHT22;32527;51.986;5.842;2022-09-09T07:34:15;17.50;99.90
46766;DHT22;32527;51.986;5.842;2022-09-09T07:37:00;17.80;99.90
46766;DHT22;32527;51.986;5.842;2022-09-09T07:39:40;17.50;99.90
46766;DHT22;32527;51.986;5.842;2022-09-09T07:42:17;17.80;99.90
46766;DHT22;32527;51.986;5.842;2022-09-09T07:49:55;17.20;99.90
46766;DHT22;32527;51.986;5.842;2022-09-09T07:52:28;16.90;99.90
46766;DHT22;32527;51.986;5.842;2022-09-09T07:55:05;16.90;99.90
46766;DHT22;32527;51.986;5.842;2022-09-09T07:57:50;16.80;99.90
46766;DHT22;32527;51.986;5.842;2022-09-09T08:00:30;16.90;99.90
46766;DHT22;32527;51.986;5.842;2022-09-09T08:03:10;16.90;99.90
46766;DHT22;32527;51.986;5.842;2022-09-09T08:05:41;16.90;99.90
46766;DHT22;32527;51.986;5.842;2022-09-09T08:10:51;16.80;99.90
46766;DHT22;32527;51.986;5.842;2022-09-09T08:16:28;16.50;99.90
46766;DHT22;32527;51.986;5.842;2022-09-09T08:18:58;17.00;99.90
46766;DHT22;32527;51.986;5.842;2022-09-09T08:21:32;16.60;99.90
46766;DHT22;32527;51.986;5.842;2022-09-09T08:31:56;16.60;99.90
46766;DHT22;32527;51.986;5.842;2022-09-09T08:34:35;16.60;99.90
46766;DHT22;32527;51.986;5.842;2022-09-09T08:37:16;16.70;99.90
46766;DHT22;32527;51.986;5.842;2022-09-09T08:42:38;16.70;99.90
46766;DHT22;32527;51.986;5.842;2022-09-09T08:51:30;16.70;99.90
46766;DHT22;32527;51.986;5.842;2022-09-09T08:53:57;16.80;99.90
46766;DHT22;32527;51.986;5.842;2022-09-09T08:56:24;16.80;99.90
46766;DHT22;32527;51.986;5.842;2022-09-09T08:58:55;16.90;99.90
46766;DHT22;32527;51.986;5.842;2022-09-09T09:07:18;16.50;99.90
46766;DHT22;32527;51.986;5.842;2022-09-09T09:10:01;16.80;99.90
46766;DHT22;32527;51.986;5.842;2022-09-09T09:12:42;16.90;99.90
46766;DHT22;32527;51.986;5.842;2022-09-09T09:17:47;17.10;99.90
46766;DHT22;32527;51.986;5.842;2022-09-09T09:20:16;17.10;99.90
46766;DHT22;32527;51.986;5.842;2022-09-09T09:22:52;17.10;99.90
46766;DHT22;32527;51.986;5.842;2022-09-09T09:25:22;17.10;99.90
46766;DHT22;32527;51.986;5.842;2022-09-09T09:28:10;17.00;99.90
46766;DHT22;32527;51.986;5.842;2022-09-09T09:30:52;17.00;99.90
46766;DHT22;32527;51.986;5.842;2022-09-09T09:36:12;16.90;99.90
46766;DHT22;32527;51.986;5.842;2022-09-09T09:39:01;17.00;99.90
46766;DHT22;32527;51.986;5.842;2022-09-09T09:41:34;17.00;99.90
46766;DHT22;32527;51.986;5.842;2022-09-09T09:44:03;17.10;99.90
46766;DHT22;32527;51.986;5.842;2022-09-09T09:46:31;17.10;99.90
46766;DHT22;32527;51.986;5.842;2022-09-09T09:49:09;17.20;99.90
46766;DHT22;32527;51.986;5.842;2022-09-09T09:51:36;17.50;99.90
46766;DHT22;32527;51.986;5.842;2022-09-09T09:56:39;17.50;99.90
46766;DHT22;32527;51.986;5.842;2022-09-09T09:59:23;17.70;99.90
46766;DHT22;32527;51.986;5.842;2022-09-09T10:02:19;18.00;99.90
46766;DHT22;32527;51.986;5.842;2022-09-09T10:04:49;17.90;99.90
46766;DHT22;32527;51.986;5.842;2022-09-09T10:07:26;17.90;99.90
46766;DHT22;32527;51.986;5.842;2022-09-09T10:09:57;17.90;99.90
46766;DHT22;32527;51.986;5.842;2022-09-09T10:15:31;17.80;99.90
46766;DHT22;32527;51.986;5.842;2022-09-09T10:20:58;17.40;99.90
46766;DHT22;32527;51.986;5.842;2022-09-09T10:36:46;17.60;99.90
46766;DHT22;32527;51.986;5.842;2022-09-09T10:42:05;17.80;99.90
46766;DHT22;32527;51.986;5.842;2022-09-09T10:50:06;17.60;99.90
46766;DHT22;32527;51.986;5.842;2022-09-09T10:52:50;17.60;99.90
46766;DHT22;32527;51.986;5.842;2022-09-09T10:55:23;17.60;99.90
46766;DHT22;32527;51.986;5.842;2022-09-09T10:57:58;17.70;99.90
46766;DHT22;32527;51.986;5.842;2022-09-09T11:00:49;17.80;99.90
46766;DHT22;32527;51.986;5.842;2022-09-09T11:03:22;17.80;99.90
46766;DHT22;32527;51.986;5.842;2022-09-09T11:05:55;17.90;99.90
46766;DHT22;32527;51.986;5.842;2022-09-09T11:08:25;17.70;99.90
46766;DHT22;32527;51.986;5.842;2022-09-09T11:10:53;17.60;99.90
46766;DHT22;32527;51.986;5.842;2022-09-09T11:16:09;17.20;99.90
46766;DHT22;32527;51.986;5.842;2022-09-09T11:18:40;17.10;99.90
46766;DHT22;32527;51.986;5.842;2022-09-09T11:21:13;16.80;99.90
46766;DHT22;32527;51.986;5.842;2022-09-09T11:23:48;16.60;99.90
46766;DHT22;32527;51.986;5.842;2022-09-09T11:26:21;16.50;99.90
46766;DHT22;32527;51.986;5.842;2022-09-09T11:31:33;16.70;99.90
46766;DHT22;32527;51.986;5.842;2022-09-09T11:34:31;17.00;99.90
46766;DHT22;32527;51.986;5.842;2022-09-09T11:42:35;16.90;99.90
46766;DHT22;32527;51.986;5.842;2022-09-09T11:45:24;16.80;99.90
46766;DHT22;32527;51.986;5.842;2022-09-09T11:47:52;16.80;99.90
46766;DHT22;32527;51.986;5.842;2022-09-09T11:52:46;17.00;99.90
46766;DHT22;32527;51.986;5.842;2022-09-09T11:55:31;17.20;99.90
46766;DHT22;32527;51.986;5.842;2022-09-09T11:58:03;17.10;99.90
46766;DHT22;32527;51.986;5.842;2022-09-09T12:02:58;17.10;99.90
46766;DHT22;32527;51.986;5.842;2022-09-09T12:05:38;17.20;99.90
46766;DHT22;32527;51.986;5.842;2022-09-09T12:08:07;17.40;99.90
46766;DHT22;32527;51.986;5.842;2022-09-09T12:10:38;18.00;99.90
46766;DHT22;32527;51.986;5.842;2022-09-09T12:13:22;18.00;99.90
46766;DHT22;32527;51.986;5.842;2022-09-09T12:15:55;18.00;99.90
46766;DHT22;32527;51.986;5.842;2022-09-09T12:18:24;17.80;99.90
46766;DHT22;32527;51.986;5.842;2022-09-09T12:21:15;17.80;99.90
46766;DHT22;32527;51.986;5.842;2022-09-09T12:23:55;17.60;99.90
46766;DHT22;32527;51.986;5.842;2022-09-09T12:34:41;17.30;99.90
46766;DHT22;32527;51.986;5.842;2022-09-09T12:39:47;17.30;99.90
46766;DHT22;32527;51.986;5.842;2022-09-09T12:42:20;17.40;99.90
46766;DHT22;32527;51.986;5.842;2022-09-09T12:44:56;17.50;99.90
46766;DHT22;32527;51.986;5.842;2022-09-09T12:47:44;17.70;99.90
46766;DHT22;32527;51.986;5.842;2022-09-09T12:50:30;17.60;99.90
46766;DHT22;32527;51.986;5.842;2022-09-09T12:53:08;17.70;99.90
46766;DHT22;32527;51.986;5.842;2022-09-09T12:55:37;17.70;99.90
46766;DHT22;32527;51.986;5.842;2022-09-09T12:58:04;17.50;99.90
46766;DHT22;32527;51.986;5.842;2022-09-09T13:00:33;17.50;99.90
46766;DHT22;32527;51.986;5.842;2022-09-09T13:03:02;17.60;99.90
46766;DHT22;32527;51.986;5.842;2022-09-09T13:05:38;17.70;99.90
46766;DHT22;32527;51.986;5.842;2022-09-09T13:08:09;17.80;99.90
46766;DHT22;32527;51.986;5.842;2022-09-09T13:10:53;17.70;99.90
46766;DHT22;32527;51.986;5.842;2022-09-09T13:13:43;17.50;99.90
46766;DHT22;32527;51.986;5.842;2022-09-09T13:16:31;17.80;99.90
46766;DHT22;32527;51.986;5.842;2022-09-09T13:19:06;17.90;99.90
46766;DHT22;32527;51.986;5.842;2022-09-09T13:21:39;18.10;99.90
46766;DHT22;32527;51.986;5.842;2022-09-09T13:26:58;18.30;99.90
46766;DHT22;32527;51.986;5.842;2022-09-09T13:29:26;18.40;99.90
46766;DHT22;32527;51.986;5.842;2022-09-09T13:31:53;18.30;99.90
46766;DHT22;32527;51.986;5.842;2022-09-09T13:34:28;18.20;99.90
46766;DHT22;32527;51.986;5.842;2022-09-09T13:37:02;18.30;99.90
46766;DHT22;32527;51.986;5.842;2022-09-09T13:39:29;18.30;99.90
46766;DHT22;32527;51.986;5.842;2022-09-09T13:41:55;18.40;99.90
46766;DHT22;32527;51.986;5.842;2022-09-09T13:44:24;18.40;99.90
46766;DHT22;32527;51.986;5.842;2022-09-09T13:47:05;18.40;99.90
46766;DHT22;32527;51.986;5.842;2022-09-09T13:49:32;18.40;99.90
46766;DHT22;32527;51.986;5.842;2022-09-09T13:52:25;18.30;99.90
46766;DHT22;32527;51.986;5.842;2022-09-09T13:54:52;18.20;99.90
46766;DHT22;32527;51.986;5.842;2022-09-09T13:57:21;18.20;99.90
46766;DHT22;32527;51.986;5.842;2022-09-09T13:59:48;18.10;99.90
46766;DHT22;32527;51.986;5.842;2022-09-09T14:02:15;18.00;99.90
46766;DHT22;32527;51.986;5.842;2022-09-09T14:04:42;18.00;99.90
46766;DHT22;32527;51.986;5.842;2022-09-09T14:07:18;18.00;99.90
46766;DHT22;32527;51.986;5.842;2022-09-09T14:09:44;18.10;99.90
46766;DHT22;32527;51.986;5.842;2022-09-09T14:12:13;18.20;99.90
46766;DHT22;32527;51.986;5.842;2022-09-09T14:14:40;18.40;99.90
46766;DHT22;32527;51.986;5.842;2022-09-09T14:17:08;18.50;99.90
46766;DHT22;32527;51.986;5.842;2022-09-09T14:19:34;18.50;99.90
46766;DHT22;32527;51.986;5.842;2022-09-09T14:22:00;18.50;99.90
46766;DHT22;32527;51.986;5.842;2022-09-09T14:24:26;18.30;99.90
46766;DHT22;32527;51.986;5.842;2022-09-09T14:26:53;18.20;99.90
46766;DHT22;32527;51.986;5.842;2022-09-09T14:29:19;18.10;99.90
46766;DHT22;32527;51.986;5.842;2022-09-09T14:31:45;18.80;99.90
46766;DHT22;32527;51.986;5.842;2022-09-09T14:34:10;18.00;99.90
46766;DHT22;32527;51.986;5.842;2022-09-09T14:36:37;18.00;99.90
46766;DHT22;32527;51.986;5.842;2022-09-09T14:39:03;18.00;99.90
46766;DHT22;32527;51.986;5.842;2022-09-09T14:41:30;17.90;99.90
46766;DHT22;32527;51.986;5.842;2022-09-09T14:46:22;17.80;99.90
46766;DHT22;32527;51.986;5.842;2022-09-09T14:48:48;17.90;99.90
46766;DHT22;32527;51.986;5.842;2022-09-09T14:53:58;18.20;99.90
46766;DHT22;32527;51.986;5.842;2022-09-09T14:56:33;18.20;99.90
46766;DHT22;32527;51.986;5.842;2022-09-09T14:59:02;18.20;99.90
46766;DHT22;32527;51.986;5.842;2022-09-09T15:01:31;18.20;99.90
46766;DHT22;32527;51.986;5.842;2022-09-09T15:04:03;18.20;99.90
46766;DHT22;32527;51.986;5.842;2022-09-09T15:06:52;18.30;99.90
46766;DHT22;32527;51.986;5.842;2022-09-09T15:09:32;18.20;99.90
46766;DHT22;32527;51.986;5.842;2022-09-09T15:22:38;17.20;99.90
46766;DHT22;32527;51.986;5.842;2022-09-09T15:27:50;16.80;99.90
46766;DHT22;32527;51.986;5.842;2022-09-09T15:30:35;16.70;99.90
46766;DHT22;32527;51.986;5.842;2022-09-09T15:33:20;16.60;99.90
46766;DHT22;32527;51.986;5.842;2022-09-09T15:39:38;16.60;99.90
46766;DHT22;32527;51.986;5.842;2022-09-09T15:49:16;16.70;99.90
46766;DHT22;32527;51.986;5.842;2022-09-09T15:58:39;16.50;99.90
46766;DHT22;32527;51.986;5.842;2022-09-09T16:06:32;16.20;99.90
46766;DHT22;32527;51.986;5.842;2022-09-09T16:09:52;15.20;99.90
46766;DHT22;32527;51.986;5.842;2022-09-09T16:12:48;15.20;99.90
46766;DHT22;32527;51.986;5.842;2022-09-09T16:18:20;15.30;99.90
46766;DHT22;32527;51.986;5.842;2022-09-09T16:24:25;15.70;99.90
46766;DHT22;32527;51.986;5.842;2022-09-09T16:26:58;15.80;99.90
46766;DHT22;32527;51.986;5.842;2022-09-09T16:30:17;15.90;99.90
46766;DHT22;32527;51.986;5.842;2022-09-09T16:33:06;15.90;99.90
46766;DHT22;32527;51.986;5.842;2022-09-09T16:35:36;16.10;99.90
46766;DHT22;32527;51.986;5.842;2022-09-09T16:40:28;16.40;99.90
46766;DHT22;32527;51.986;5.842;2022-09-09T16:42:53;16.10;99.90
46766;DHT22;32527;51.986;5.842;2022-09-09T16:45:20;16.60;99.90
46766;DHT22;32527;51.986;5.842;2022-09-09T16:47:46;15.90;99.90
46766;DHT22;32527;51.986;5.842;2022-09-09T16:55:04;16.20;99.90
46766;DHT22;32527;51.986;5.842;2022-09-09T17:02:25;16.30;99.90
46766;DHT22;32527;51.986;5.842;2022-09-09T17:04:50;16.10;99.90
46766;DHT22;32527;51.986;5.842;2022-09-09T17:09:44;16.60;99.90
46766;DHT22;32527;51.986;5.842;2022-09-09T17:12:10;16.60;99.90
46766;DHT22;32527;51.986;5.842;2022-09-09T17:14:37;16.60;99.90
46766;DHT22;32527;51.986;5.842;2022-09-09T17:17:03;15.90;99.90
46766;DHT22;32527;51.986;5.842;2022-09-09T17:19:30;16.30;99.90
46766;DHT22;32527;51.986;5.842;2022-09-09T17:21:56;15.80;99.90
46766;DHT22;32527;51.986;5.842;2022-09-09T17:24:26;16.30;99.90
46766;DHT22;32527;51.986;5.842;2022-09-09T17:26:54;15.40;99.90
46766;DHT22;32527;51.986;5.842;2022-09-09T17:29:21;15.60;99.90
46766;DHT22;32527;51.986;5.842;2022-09-09T17:31:47;15.50;99.90
46766;DHT22;32527;51.986;5.842;2022-09-09T17:34:12;15.90;99.90
46766;DHT22;32527;51.986;5.842;2022-09-09T17:36:38;15.50;99.90
46766;DHT22;32527;51.986;5.842;2022-09-09T17:39:04;15.30;99.90
46766;DHT22;32527;51.986;5.842;2022-09-09T17:41:38;15.30;99.90
46766;DHT22;32527;51.986;5.842;2022-09-09T17:44:06;15.30;99.90
46766;DHT22;32527;51.986;5.842;2022-09-09T17:46:37;15.30;99.90
46766;DHT22;32527;51.986;5.842;2022-09-09T17:49:08;15.50;99.90
46766;DHT22;32527;51.986;5.842;2022-09-09T17:51:35;15.00;99.90
46766;DHT22;32527;51.986;5.842;2022-09-09T17:54:06;15.00;99.90
46766;DHT22;32527;51.986;5.842;2022-09-09T17:56:36;15.70;99.90
46766;DHT22;32527;51.986;5.842;2022-09-09T17:59:05;15.30;99.90
46766;DHT22;32527;51.986;5.842;2022-09-09T18:01:33;15.20;99.90
46766;DHT22;32527;51.986;5.842;2022-09-09T18:04:03;15.30;99.90
46766;DHT22;32527;51.986;5.842;2022-09-09T18:06:33;15.50;99.90
46766;DHT22;32527;51.986;5.842;2022-09-09T18:09:02;15.10;99.90
46766;DHT22;32527;51.986;5.842;2022-09-09T18:11:32;15.30;99.90
46766;DHT22;32527;51.986;5.842;2022-09-09T18:14:02;15.40;99.90
46766;DHT22;32527;51.986;5.842;2022-09-09T18:16:31;15.70;99.90
46766;DHT22;32527;51.986;5.842;2022-09-09T18:18:58;14.90;99.90
46766;DHT22;32527;51.986;5.842;2022-09-09T18:21:24;15.40;99.90
46766;DHT22;32527;51.986;5.842;2022-09-09T18:23:56;14.90;99.90
46766;DHT22;32527;51.986;5.842;2022-09-09T18:26:24;15.20;99.90
46766;DHT22;32527;51.986;5.842;2022-09-09T18:28:59;15.10;99.90
46766;DHT22;32527;51.986;5.842;2022-09-09T18:31:27;15.70;99.90
46766;DHT22;32527;51.986;5.842;2022-09-09T18:33:55;15.00;99.90
46766;DHT22;32527;51.986;5.842;2022-09-09T18:36:23;15.30;99.90
46766;DHT22;32527;51.986;5.842;2022-09-09T18:38:50;14.80;99.90
46766;DHT22;32527;51.986;5.842;2022-09-09T18:43:42;15.00;99.90
46766;DHT22;32527;51.986;5.842;2022-09-09T18:46:09;15.00;99.90
46766;DHT22;32527;51.986;5.842;2022-09-09T18:48:35;14.90;99.90
46766;DHT22;32527;51.986;5.842;2022-09-09T18:51:06;15.00;99.90
46766;DHT22;32527;51.986;5.842;2022-09-09T18:53:32;15.20;99.90
46766;DHT22;32527;51.986;5.842;2022-09-09T18:56:04;15.40;99.90
46766;DHT22;32527;51.986;5.842;2022-09-09T18:58:31;15.40;99.90
46766;DHT22;32527;51.986;5.842;2022-09-09T19:00:58;15.30;99.90
46766;DHT22;32527;51.986;5.842;2022-09-09T19:03:25;14.80;99.90
46766;DHT22;32527;51.986;5.842;2022-09-09T19:05:51;15.20;99.90
46766;DHT22;32527;51.986;5.842;2022-09-09T19:08:18;14.80;99.90
46766;DHT22;32527;51.986;5.842;2022-09-09T19:10:46;14.90;99.90
46766;DHT22;32527;51.986;5.842;2022-09-09T19:13:12;14.60;99.90
46766;DHT22;32527;51.986;5.842;2022-09-09T19:15:38;14.80;99.90
46766;DHT22;32527;51.986;5.842;2022-09-09T19:18:05;15.00;99.90
46766;DHT22;32527;51.986;5.842;2022-09-09T19:20:30;14.60;99.90
46766;DHT22;32527;51.986;5.842;2022-09-09T19:25:22;14.50;99.90
46766;DHT22;32527;51.986;5.842;2022-09-09T19:27:48;14.50;99.90
46766;DHT22;32527;51.986;5.842;2022-09-09T19:30:14;15.10;99.90
46766;DHT22;32527;51.986;5.842;2022-09-09T19:32:41;15.10;99.90
46766;DHT22;32527;51.986;5.842;2022-09-09T19:35:07;14.40;99.90
46766;DHT22;32527;51.986;5.842;2022-09-09T19:37:34;14.40;99.90
46766;DHT22;32527;51.986;5.842;2022-09-09T19:40:00;15.20;99.90
46766;DHT22;32527;51.986;5.842;2022-09-09T19:42:26;14.30;99.90
46766;DHT22;32527;51.986;5.842;2022-09-09T19:44:54;14.20;99.90
46766;DHT22;32527;51.986;5.842;2022-09-09T19:47:21;15.20;99.90
46766;DHT22;32527;51.986;5.842;2022-09-09T19:52:16;14.50;99.90
46766;DHT22;32527;51.986;5.842;2022-09-09T19:54:42;14.40;99.90
46766;DHT22;32527;51.986;5.842;2022-09-09T20:02:01;14.90;99.90
46766;DHT22;32527;51.986;5.842;2022-09-09T20:06:53;15.10;99.90
46766;DHT22;32527;51.986;5.842;2022-09-09T20:09:20;14.70;99.90
46766;DHT22;32527;51.986;5.842;2022-09-09T20:11:47;15.10;99.90
46766;DHT22;32527;51.986;5.842;2022-09-09T20:14:13;15.10;99.90
46766;DHT22;32527;51.986;5.842;2022-09-09T20:16:39;14.90;99.90
46766;DHT22;32527;51.986;5.842;2022-09-09T20:19:08;15.20;99.90
46766;DHT22;32527;51.986;5.842;2022-09-09T20:21:41;15.00;99.90
46766;DHT22;32527;51.986;5.842;2022-09-09T20:24:11;14.80;99.90
46766;DHT22;32527;51.986;5.842;2022-09-09T20:26:37;15.20;99.90
46766;DHT22;32527;51.986;5.842;2022-09-09T20:29:08;14.70;99.90
46766;DHT22;32527;51.986;5.842;2022-09-09T20:31:36;14.70;99.90
46766;DHT22;32527;51.986;5.842;2022-09-09T20:34:06;14.60;99.90
46766;DHT22;32527;51.986;5.842;2022-09-09T20:36:35;14.60;99.90
46766;DHT22;32527;51.986;5.842;2022-09-09T20:39:02;14.50;99.90
46766;DHT22;32527;51.986;5.842;2022-09-09T20:41:30;14.70;99.90
46766;DHT22;32527;51.986;5.842;2022-09-09T20:44:01;14.70;99.90
46766;DHT22;32527;51.986;5.842;2022-09-09T20:46:33;14.60;99.90
46766;DHT22;32527;51.986;5.842;2022-09-09T20:49:00;14.60;99.90
46766;DHT22;32527;51.986;5.842;2022-09-09T20:51:27;15.10;99.90
46766;DHT22;32527;51.986;5.842;2022-09-09T20:59:12;14.60;99.90
46766;DHT22;32527;51.986;5.842;2022-09-09T21:01:38;14.40;99.90
46766;DHT22;32527;51.986;5.842;2022-09-09T21:04:05;14.60;99.90
46766;DHT22;32527;51.986;5.842;2022-09-09T21:06:30;14.70;99.90
46766;DHT22;32527;51.986;5.842;2022-09-09T21:16:17;14.40;99.90
46766;DHT22;32527;51.986;5.842;2022-09-09T21:18:49;14.30;99.90